sensor_id;sensor_type;location;lat;lon;timestamp;pressure;altitude;pressure_sealevel;temperature;humidity
12146;BME280;6136;47.032;15.398;2023-04-02T00:01:51;96640.50;;;8.67;100.00
12146;BME280;6136;47.032;15.398;2023-04-02T00:04:21;96643.28;;;8.66;100.00
12146;BME280;6136;47.032;15.398;2023-04-02T00:06:52;96639.47;;;8.57;100.00
12146;BME280;6136;47.032;15.398;2023-04-02T00:09:35;96636.31;;;8.52;100.00
12146;BME280;6136;47.032;15.398;2023-04-02T00:12:14;96638.22;;;8.50;100.00
12146;BME280;6136;47.032;15.398;2023-04-02T00:14:51;96642.88;;;8.59;100.00
12146;BME280;6136;47.032;15.398;2023-04-02T00:17:22;96650.78;;;8.59;100.00
12146;BME280;6136;47.032;15.398;2023-04-02T00:19:55;96634.09;;;8.46;100.00
12146;BME280;6136;47.032;15.398;2023-04-02T00:22:26;96635.03;;;8.45;100.00
12146;BME280;6136;47.032;15.398;2023-04-02T00:25:00;96636.00;;;8.44;100.00
12146;BME280;6136;47.032;15.398;2023-04-02T00:27:29;96630.16;;;8.39;100.00
12146;BME280;6136;47.032;15.398;2023-04-02T00:30:00;96620.63;;;8.24;100.00
12146;BME280;6136;47.032;15.398;2023-04-02T00:32:32;96629.91;;;8.16;100.00
12146;BME280;6136;47.032;15.398;2023-04-02T00:35:02;96633.72;;;8.12;100.00
12146;BME280;6136;47.032;15.398;2023-04-02T00:37:32;96627.91;;;8.07;100.00
12146;BME280;6136;47.032;15.398;2023-04-02T00:40:08;96625.78;;;8.00;100.00
12146;BME280;6136;47.032;15.398;2023-04-02T00:42:43;96628.81;;;7.94;100.00
12146;BME280;6136;47.032;15.398;2023-04-02T00:45:20;96627.19;;;7.78;100.00
12146;BME280;6136;47.032;15.398;2023-04-02T00:47:49;96635.00;;;7.80;100.00
12146;BME280;6136;47.032;15.398;2023-04-02T00:50:23;96638.91;;;7.74;100.00
12146;BME280;6136;47.032;15.398;2023-04-02T00:52:56;96640.78;;;7.72;100.00
12146;BME280;6136;47.032;15.398;2023-04-02T00:55:31;96642.47;;;7.73;100.00
12146;BME280;6136;47.032;15.398;2023-04-02T00:58:03;96641.84;;;7.70;100.00
12146;BME280;6136;47.032;15.398;2023-04-02T01:00:35;96628.09;;;7.65;100.00
12146;BME280;6136;47.032;15.398;2023-04-02T01:03:25;96629.38;;;7.72;100.00
12146;BME280;6136;47.032;15.398;2023-04-02T01:05:59;96612.28;;;7.65;100.00
12146;BME280;6136;47.032;15.398;2023-04-02T01:08:43;96621.28;;;7.75;100.00
12146;BME280;6136;47.032;15.398;2023-04-02T01:11:27;96613.34;;;7.62;100.00
12146;BME280;6136;47.032;15.398;2023-04-02T01:14:02;96627.69;;;7.71;100.00
12146;BME280;6136;47.032;15.398;2023-04-02T01:16:43;96623.91;;;7.75;100.00
12146;BME280;6136;47.032;15.398;2023-04-02T01:19:40;96618.00;;;7.71;100.00
12146;BME280;6136;47.032;15.398;2023-04-02T01:22:21;96624.56;;;7.78;100.00
12146;BME280;6136;47.032;15.398;2023-04-02T01:24:50;96628.78;;;7.81;100.00
12146;BME280;6136;47.032;15.398;2023-04-02T01:27:21;96630.66;;;7.79;100.00
12146;BME280;6136;47.032;15.398;2023-04-02T01:29:55;96631.22;;;7.84;100.00
12146;BME280;6136;47.032;15.398;2023-04-02T01:32:26;96626.06;;;7.83;100.00
12146;BME280;6136;47.032;15.398;2023-04-02T01:34:56;96619.94;;;7.82;100.00
12146;BME280;6136;47.032;15.398;2023-04-02T01:37:34;96625.13;;;7.84;100.00
12146;BME280;6136;47.032;15.398;2023-04-02T01:40:12;96627.94;;;7.80;100.00
12146;BME280;6136;47.032;15.398;2023-04-02T01:42:49;96626.91;;;7.83;100.00
12146;BME280;6136;47.032;15.398;2023-04-02T01:45:21;96626.06;;;7.83;100.00
12146;BME280;6136;47.032;15.398;2023-04-02T01:47:50;96628.38;;;7.87;100.00
12146;BME280;6136;47.032;15.398;2023-04-02T01:50:24;96617.72;;;7.76;100.00
12146;BME280;6136;47.032;15.398;2023-04-02T01:53:00;96634.28;;;7.78;100.00
12146;BME280;6136;47.032;15.398;2023-04-02T01:55:37;96640.34;;;7.66;100.00
12146;BME280;6136;47.032;15.398;2023-04-02T01:58:08;96642.44;;;7.61;100.00
12146;BME280;6136;47.032;15.398;2023-04-02T02:00:43;96638.59;;;7.52;100.00
12146;BME280;6136;47.032;15.398;2023-04-02T02:03:13;96652.28;;;7.45;100.00
12146;BME280;6136;47.032;15.398;2023-04-02T02:05:43;96641.50;;;7.21;100.00
12146;BME280;6136;47.032;15.398;2023-04-02T02:08:29;96637.41;;;7.17;100.00
12146;BME280;6136;47.032;15.398;2023-04-02T02:10:58;96650.47;;;7.18;100.00
12146;BME280;6136;47.032;15.398;2023-04-02T02:13:27;96656.41;;;7.08;100.00
12146;BME280;6136;47.032;15.398;2023-04-02T02:15:57;96663.84;;;7.01;100.00
12146;BME280;6136;47.032;15.398;2023-04-02T02:18:27;96643.16;;;6.95;100.00
12146;BME280;6136;47.032;15.398;2023-04-02T02:20:57;96658.59;;;7.01;100.00
12146;BME280;6136;47.032;15.398;2023-04-02T02:23:27;96664.25;;;6.95;100.00
12146;BME280;6136;47.032;15.398;2023-04-02T02:25:57;96649.38;;;6.80;100.00
12146;BME280;6136;47.032;15.398;2023-04-02T02:28:26;96653.81;;;6.79;100.00
12146;BME280;6136;47.032;15.398;2023-04-02T02:31:00;96666.66;;;6.84;100.00
12146;BME280;6136;47.032;15.398;2023-04-02T02:33:33;96649.66;;;6.61;100.00
12146;BME280;6136;47.032;15.398;2023-04-02T02:36:09;96658.59;;;6.58;100.00
12146;BME280;6136;47.032;15.398;2023-04-02T02:38:47;96647.50;;;6.53;100.00
12146;BME280;6136;47.032;15.398;2023-04-02T02:41:39;96657.75;;;6.58;100.00
12146;BME280;6136;47.032;15.398;2023-04-02T02:44:14;96651.25;;;6.49;100.00
12146;BME280;6136;47.032;15.398;2023-04-02T02:46:49;96665.50;;;6.31;100.00
12146;BME280;6136;47.032;15.398;2023-04-02T02:49:22;96667.56;;;6.26;100.00
12146;BME280;6136;47.032;15.398;2023-04-02T02:51:59;96667.56;;;6.26;100.00
12146;BME280;6136;47.032;15.398;2023-04-02T02:54:40;96658.34;;;6.19;100.00
12146;BME280;6136;47.032;15.398;2023-04-02T02:57:14;96670.56;;;6.20;100.00
12146;BME280;6136;47.032;15.398;2023-04-02T02:59:46;96658.53;;;6.16;100.00
12146;BME280;6136;47.032;15.398;2023-04-02T03:02:18;96673.78;;;6.25;100.00
12146;BME280;6136;47.032;15.398;2023-04-02T03:04:47;96676.22;;;6.28;100.00
12146;BME280;6136;47.032;15.398;2023-04-02T03:07:22;96660.41;;;6.14;100.00
12146;BME280;6136;47.032;15.398;2023-04-02T03:10:02;96679.41;;;6.19;100.00
12146;BME280;6136;47.032;15.398;2023-04-02T03:12:42;96671.69;;;6.16;100.00
12146;BME280;6136;47.032;15.398;2023-04-02T03:15:18;96674.13;;;6.19;100.00
12146;BME280;6136;47.032;15.398;2023-04-02T03:17:54;96681.47;;;6.14;100.00
12146;BME280;6136;47.032;15.398;2023-04-02T03:20:29;96666.00;;;6.08;100.00
12146;BME280;6136;47.032;15.398;2023-04-02T03:23:06;96688.22;;;6.18;100.00
12146;BME280;6136;47.032;15.398;2023-04-02T03:25:42;96687.56;;;6.14;100.00
12146;BME280;6136;47.032;15.398;2023-04-02T03:28:14;96689.25;;;6.15;100.00
12146;BME280;6136;47.032;15.398;2023-04-02T03:30:46;96685.03;;;6.13;100.00
12146;BME280;6136;47.032;15.398;2023-04-02T03:33:22;96685.97;;;6.12;100.00
12146;BME280;6136;47.032;15.398;2023-04-02T03:35:57;96689.53;;;6.11;100.00
12146;BME280;6136;47.032;15.398;2023-04-02T03:38:29;96698.25;;;6.11;100.00
12146;BME280;6136;47.032;15.398;2023-04-02T03:41:03;96694.00;;;6.09;100.00
12146;BME280;6136;47.032;15.398;2023-04-02T03:43:38;96702.50;;;6.14;100.00
12146;BME280;6136;47.032;15.398;2023-04-02T03:46:17;96717.78;;;6.07;100.00
12146;BME280;6136;47.032;15.398;2023-04-02T03:48:53;96691.84;;;6.01;100.00
12146;BME280;6136;47.032;15.398;2023-04-02T03:51:26;96717.69;;;6.09;100.00
12146;BME280;6136;47.032;15.398;2023-04-02T03:54:00;96715.41;;;6.03;100.00
12146;BME280;6136;47.032;15.398;2023-04-02T03:56:31;96705.09;;;6.00;100.00
12146;BME280;6136;47.032;15.398;2023-04-02T03:59:14;96704.41;;;5.96;100.00
12146;BME280;6136;47.032;15.398;2023-04-02T04:01:48;96710.69;;;5.94;100.00
12146;BME280;6136;47.032;15.398;2023-04-02T04:04:25;96705.78;;;5.88;100.00
12146;BME280;6136;47.032;15.398;2023-04-02T04:06:56;96702.22;;;5.89;100.00
12146;BME280;6136;47.032;15.398;2023-04-02T04:09:28;96717.81;;;5.92;100.00
12146;BME280;6136;47.032;15.398;2023-04-02T04:12:07;96719.81;;;5.86;100.00
12146;BME280;6136;47.032;15.398;2023-04-02T04:14:39;96722.81;;;5.80;100.00
12146;BME280;6136;47.032;15.398;2023-04-02T04:17:15;96715.44;;;5.71;100.00
12146;BME280;6136;47.032;15.398;2023-04-02T04:19:58;96732.56;;;5.78;100.00
12146;BME280;6136;47.032;15.398;2023-04-02T04:22:34;96722.31;;;5.74;100.00
12146;BME280;6136;47.032;15.398;2023-04-02T04:25:22;96746.38;;;5.82;100.00
12146;BME280;6136;47.032;15.398;2023-04-02T04:28:06;96748.69;;;5.88;100.00
12146;BME280;6136;47.032;15.398;2023-04-02T04:30:46;96742.06;;;5.81;100.00
12146;BME280;6136;47.032;15.398;2023-04-02T04:33:21;96744.59;;;5.82;100.00
12146;BME280;6136;47.032;15.398;2023-04-02T04:35:59;96745.81;;;5.77;100.00
12146;BME280;6136;47.032;15.398;2023-04-02T04:38:34;96752.56;;;5.81;100.00
12146;BME280;6136;47.032;15.398;2023-04-02T04:41:12;96746.31;;;5.83;100.00
12146;BME280;6136;47.032;15.398;2023-04-02T04:43:47;96738.75;;;5.77;100.00
12146;BME280;6136;47.032;15.398;2023-04-02T04:46:19;96752.50;;;5.82;100.00
12146;BME280;6136;47.032;15.398;2023-04-02T04:48:54;96765.31;;;5.89;100.00
12146;BME280;6136;47.032;15.398;2023-04-02T04:51:30;96753.94;;;5.88;100.00
12146;BME280;6136;47.032;15.398;2023-04-02T04:54:01;96761.59;;;5.93;100.00
12146;BME280;6136;47.032;15.398;2023-04-02T04:56:33;96755.38;;;5.94;100.00
12146;BME280;6136;47.032;15.398;2023-04-02T04:59:14;96747.84;;;5.88;100.00
12146;BME280;6136;47.032;15.398;2023-04-02T05:01:50;96757.06;;;5.95;100.00
12146;BME280;6136;47.032;15.398;2023-04-02T05:04:25;96760.19;;;6.01;100.00
12146;BME280;6136;47.032;15.398;2023-04-02T05:07:02;96753.44;;;5.97;100.00
12146;BME280;6136;47.032;15.398;2023-04-02T05:09:36;96765.94;;;6.08;100.00
12146;BME280;6136;47.032;15.398;2023-04-02T05:12:15;96770.03;;;6.13;100.00
12146;BME280;6136;47.032;15.398;2023-04-02T05:14:49;96766.56;;;6.13;100.00
12146;BME280;6136;47.032;15.398;2023-04-02T05:17:27;96775.03;;;6.18;100.00
12146;BME280;6136;47.032;15.398;2023-04-02T05:19:59;96765.28;;;6.20;100.00
12146;BME280;6136;47.032;15.398;2023-04-02T05:22:41;96774.41;;;6.29;100.00
12146;BME280;6136;47.032;15.398;2023-04-02T05:25:19;96792.41;;;6.36;100.00
12146;BME280;6136;47.032;15.398;2023-04-02T05:27:53;96786.78;;;6.42;100.00
12146;BME280;6136;47.032;15.398;2023-04-02T05:30:47;96790.16;;;6.44;100.00
12146;BME280;6136;47.032;15.398;2023-04-02T05:33:22;96788.47;;;6.43;100.00
12146;BME280;6136;47.032;15.398;2023-04-02T05:35:57;96793.19;;;6.52;100.00
12146;BME280;6136;47.032;15.398;2023-04-02T05:38:31;96800.38;;;6.65;100.00
12146;BME280;6136;47.032;15.398;2023-04-02T05:41:02;96796.22;;;6.60;100.00
12146;BME280;6136;47.032;15.398;2023-04-02T05:43:33;96789.19;;;6.75;100.00
12146;BME280;6136;47.032;15.398;2023-04-02T05:46:14;96791.38;;;6.83;100.00
12146;BME280;6136;47.032;15.398;2023-04-02T05:48:48;96789.66;;;6.82;100.00
12146;BME280;6136;47.032;15.398;2023-04-02T05:51:22;96800.97;;;6.98;100.00
12146;BME280;6136;47.032;15.398;2023-04-02T05:53:55;96803.22;;;6.90;100.00
12146;BME280;6136;47.032;15.398;2023-04-02T05:56:28;96795.53;;;7.01;100.00
12146;BME280;6136;47.032;15.398;2023-04-02T05:59:06;96800.59;;;7.04;100.00
12146;BME280;6136;47.032;15.398;2023-04-02T06:01:40;96802.59;;;7.15;100.00
12146;BME280;6136;47.032;15.398;2023-04-02T06:04:26;96809.66;;;7.28;100.00
12146;BME280;6136;47.032;15.398;2023-04-02T06:07:01;96806.09;;;7.29;100.00
12146;BME280;6136;47.032;15.398;2023-04-02T06:09:41;96801.75;;;7.43;100.00
12146;BME280;6136;47.032;15.398;2023-04-02T06:12:25;96806.09;;;7.58;100.00
12146;BME280;6136;47.032;15.398;2023-04-02T06:14:56;96819.84;;;7.63;100.00
12146;BME280;6136;47.032;15.398;2023-04-02T06:17:28;96800.41;;;7.64;100.00
12146;BME280;6136;47.032;15.398;2023-04-02T06:19:58;96812.81;;;7.90;100.00
12146;BME280;6136;47.032;15.398;2023-04-02T06:22:33;96825.53;;;7.98;100.00
12146;BME280;6136;47.032;15.398;2023-04-02T06:25:12;96819.59;;;7.94;100.00
12146;BME280;6136;47.032;15.398;2023-04-02T06:27:48;96809.34;;;8.16;100.00
12146;BME280;6136;47.032;15.398;2023-04-02T06:30:22;96827.63;;;8.34;100.00
12146;BME280;6136;47.032;15.398;2023-04-02T06:32:52;96834.78;;;8.32;100.00
12146;BME280;6136;47.032;15.398;2023-04-02T06:35:20;96841.66;;;8.61;100.00
12146;BME280;6136;47.032;15.398;2023-04-02T06:38:01;96834.66;;;8.60;100.00
12146;BME280;6136;47.032;15.398;2023-04-02T06:40:39;96824.84;;;8.62;100.00
12146;BME280;6136;47.032;15.398;2023-04-02T06:43:46;96847.19;;;8.83;100.00
12146;BME280;6136;47.032;15.398;2023-04-02T06:46:30;96848.28;;;8.93;100.00
12146;BME280;6136;47.032;15.398;2023-04-02T06:49:13;96846.81;;;9.02;100.00
12146;BME280;6136;47.032;15.398;2023-04-02T06:51:47;96850.00;;;9.20;100.00
12146;BME280;6136;47.032;15.398;2023-04-02T06:54:18;96841.34;;;9.18;100.00
12146;BME280;6136;47.032;15.398;2023-04-02T06:56:54;96851.72;;;9.33;100.00
12146;BME280;6136;47.032;15.398;2023-04-02T06:59:27;96854.78;;;9.40;100.00
12146;BME280;6136;47.032;15.398;2023-04-02T07:02:00;96858.91;;;9.44;100.00
12146;BME280;6136;47.032;15.398;2023-04-02T07:04:30;96857.00;;;9.46;100.00
12146;BME280;6136;47.032;15.398;2023-04-02T07:06:59;96865.47;;;9.51;100.00
12146;BME280;6136;47.032;15.398;2023-04-02T07:09:31;96873.28;;;9.65;100.00
12146;BME280;6136;47.032;15.398;2023-04-02T07:12:10;96852.94;;;9.79;100.00
12146;BME280;6136;47.032;15.398;2023-04-02T07:14:39;96870.09;;;9.98;100.00
12146;BME280;6136;47.032;15.398;2023-04-02T07:17:13;96874.06;;;10.17;100.00
12146;BME280;6136;47.032;15.398;2023-04-02T07:19:44;96852.47;;;10.10;100.00
12146;BME280;6136;47.032;15.398;2023-04-02T07:22:18;96864.72;;;10.36;100.00
12146;BME280;6136;47.032;15.398;2023-04-02T07:24:51;96864.88;;;10.46;100.00
12146;BME280;6136;47.032;15.398;2023-04-02T07:27:21;96864.16;;;10.44;100.00
12146;BME280;6136;47.032;15.398;2023-04-02T07:29:50;96875.66;;;10.56;100.00
12146;BME280;6136;47.032;15.398;2023-04-02T07:32:19;96875.25;;;10.49;100.00
12146;BME280;6136;47.032;15.398;2023-04-02T07:34:47;96886.75;;;10.61;100.00
12146;BME280;6136;47.032;15.398;2023-04-02T07:37:15;96885.13;;;10.71;100.00
12146;BME280;6136;47.032;15.398;2023-04-02T07:39:44;96873.75;;;10.58;100.00
12146;BME280;6136;47.032;15.398;2023-04-02T07:42:13;96889.69;;;10.69;100.00
12146;BME280;6136;47.032;15.398;2023-04-02T07:44:42;96879.00;;;10.70;100.00
12146;BME280;6136;47.032;15.398;2023-04-02T07:47:11;96888.34;;;10.87;100.00
12146;BME280;6136;47.032;15.398;2023-04-02T07:49:39;96893.28;;;10.92;100.00
12146;BME280;6136;47.032;15.398;2023-04-02T07:52:08;96890.06;;;10.99;100.00
12146;BME280;6136;47.032;15.398;2023-04-02T07:54:36;96889.19;;;11.11;100.00
12146;BME280;6136;47.032;15.398;2023-04-02T07:57:05;96899.38;;;11.40;100.00
12146;BME280;6136;47.032;15.398;2023-04-02T07:59:34;96885.28;;;11.39;100.00
12146;BME280;6136;47.032;15.398;2023-04-02T08:02:03;96895.31;;;11.47;98.54
12146;BME280;6136;47.032;15.398;2023-04-02T08:04:32;96902.06;;;11.51;98.69
12146;BME280;6136;47.032;15.398;2023-04-02T08:07:00;96892.31;;;11.62;99.59
12146;BME280;6136;47.032;15.398;2023-04-02T08:09:29;96901.50;;;11.70;95.14
12146;BME280;6136;47.032;15.398;2023-04-02T08:11:57;96889.97;;;11.93;94.42
12146;BME280;6136;47.032;15.398;2023-04-02T08:14:26;96910.00;;;11.97;91.43
12146;BME280;6136;47.032;15.398;2023-04-02T08:16:55;96899.25;;;11.87;92.50
12146;BME280;6136;47.032;15.398;2023-04-02T08:19:24;96900.59;;;12.04;91.61
12146;BME280;6136;47.032;15.398;2023-04-02T08:21:54;96900.09;;;12.10;91.20
12146;BME280;6136;47.032;15.398;2023-04-02T08:24:22;96892.50;;;12.05;89.43
12146;BME280;6136;47.032;15.398;2023-04-02T08:26:51;96900.72;;;12.14;92.83
12146;BME280;6136;47.032;15.398;2023-04-02T08:29:20;96893.44;;;12.16;92.96
12146;BME280;6136;47.032;15.398;2023-04-02T08:31:48;96889.94;;;12.26;92.58
12146;BME280;6136;47.032;15.398;2023-04-02T08:34:17;96900.94;;;12.44;94.37
12146;BME280;6136;47.032;15.398;2023-04-02T08:36:47;96901.59;;;12.68;91.54
12146;BME280;6136;47.032;15.398;2023-04-02T08:39:15;96906.50;;;12.84;89.22
12146;BME280;6136;47.032;15.398;2023-04-02T08:41:48;96916.91;;;13.19;86.39
12146;BME280;6136;47.032;15.398;2023-04-02T08:44:31;96903.53;;;13.62;84.40
12146;BME280;6136;47.032;15.398;2023-04-02T08:47:04;96899.28;;;13.80;84.13
12146;BME280;6136;47.032;15.398;2023-04-02T08:49:37;96893.97;;;14.11;82.86
12146;BME280;6136;47.032;15.398;2023-04-02T08:52:18;96901.91;;;14.52;74.94
12146;BME280;6136;47.032;15.398;2023-04-02T08:54:49;96903.94;;;14.89;71.39
12146;BME280;6136;47.032;15.398;2023-04-02T08:57:26;96909.13;;;14.90;70.94
12146;BME280;6136;47.032;15.398;2023-04-02T09:00:06;96905.50;;;15.01;70.21
12146;BME280;6136;47.032;15.398;2023-04-02T09:02:38;96889.75;;;15.84;68.86
12146;BME280;6136;47.032;15.398;2023-04-02T09:05:16;96907.38;;;16.51;64.79
12146;BME280;6136;47.032;15.398;2023-04-02T09:07:48;96913.25;;;17.27;61.48
12146;BME280;6136;47.032;15.398;2023-04-02T09:10:18;96910.69;;;17.79;59.71
12146;BME280;6136;47.032;15.398;2023-04-02T09:12:51;96903.75;;;19.38;53.01
12146;BME280;6136;47.032;15.398;2023-04-02T09:15:27;96901.72;;;20.21;51.38
12146;BME280;6136;47.032;15.398;2023-04-02T09:17:59;96903.91;;;21.43;46.46
12146;BME280;6136;47.032;15.398;2023-04-02T09:20:31;96909.72;;;21.32;46.15
12146;BME280;6136;47.032;15.398;2023-04-02T09:23:01;96911.97;;;20.89;46.05
12146;BME280;6136;47.032;15.398;2023-04-02T09:25:30;96913.53;;;19.47;50.42
12146;BME280;6136;47.032;15.398;2023-04-02T09:28:01;96916.06;;;18.98;51.41
12146;BME280;6136;47.032;15.398;2023-04-02T09:30:39;96912.47;;;18.48;49.62
12146;BME280;6136;47.032;15.398;2023-04-02T09:33:10;96903.09;;;18.44;49.87
12146;BME280;6136;47.032;15.398;2023-04-02T09:35:54;96917.75;;;17.80;53.15
12146;BME280;6136;47.032;15.398;2023-04-02T09:38:25;96920.88;;;18.19;52.57
12146;BME280;6136;47.032;15.398;2023-04-02T09:40:59;96915.41;;;17.77;52.26
12146;BME280;6136;47.032;15.398;2023-04-02T09:43:29;96919.94;;;18.02;46.12
12146;BME280;6136;47.032;15.398;2023-04-02T09:46:00;96912.94;;;18.09;46.02
12146;BME280;6136;47.032;15.398;2023-04-02T09:48:31;96914.78;;;18.09;46.91
12146;BME280;6136;47.032;15.398;2023-04-02T09:51:08;96927.31;;;18.00;49.20
12146;BME280;6136;47.032;15.398;2023-04-02T09:53:40;96924.03;;;18.66;48.27
12146;BME280;6136;47.032;15.398;2023-04-02T09:56:15;96913.19;;;19.83;43.66
12146;BME280;6136;47.032;15.398;2023-04-02T09:58:45;96924.94;;;20.06;44.35
12146;BME280;6136;47.032;15.398;2023-04-02T10:01:30;96926.28;;;19.94;44.91
12146;BME280;6136;47.032;15.398;2023-04-02T10:04:02;96926.97;;;19.88;42.38
12146;BME280;6136;47.032;15.398;2023-04-02T10:06:32;96923.94;;;19.50;39.89
12146;BME280;6136;47.032;15.398;2023-04-02T10:09:24;96918.66;;;19.24;41.45
12146;BME280;6136;47.032;15.398;2023-04-02T10:11:57;96913.34;;;19.89;41.18
12146;BME280;6136;47.032;15.398;2023-04-02T10:14:29;96919.91;;;20.03;41.32
12146;BME280;6136;47.032;15.398;2023-04-02T10:17:05;96912.81;;;20.89;39.25
12146;BME280;6136;47.032;15.398;2023-04-02T10:19:37;96898.03;;;22.08;37.76
12146;BME280;6136;47.032;15.398;2023-04-02T10:22:11;96902.75;;;22.05;37.89
12146;BME280;6136;47.032;15.398;2023-04-02T10:24:42;96902.97;;;22.19;37.34
12146;BME280;6136;47.032;15.398;2023-04-02T10:27:20;96899.94;;;23.31;35.08
12146;BME280;6136;47.032;15.398;2023-04-02T10:30:04;96900.72;;;24.66;33.10
12146;BME280;6136;47.032;15.398;2023-04-02T10:32:41;96893.00;;;24.07;33.09
12146;BME280;6136;47.032;15.398;2023-04-02T10:35:18;96897.78;;;22.76;36.04
12146;BME280;6136;47.032;15.398;2023-04-02T10:38:14;96895.22;;;23.76;34.92
12146;BME280;6136;47.032;15.398;2023-04-02T10:40:53;96895.50;;;25.60;30.46
12146;BME280;6136;47.032;15.398;2023-04-02T10:43:45;96887.81;;;28.27;28.16
12146;BME280;6136;47.032;15.398;2023-04-02T10:46:20;96892.00;;;27.98;27.72
12146;BME280;6136;47.032;15.398;2023-04-02T10:48:57;96895.50;;;28.55;26.42
12146;BME280;6136;47.032;15.398;2023-04-02T10:51:36;96892.09;;;27.85;27.48
12146;BME280;6136;47.032;15.398;2023-04-02T10:54:17;96890.50;;;26.68;29.23
12146;BME280;6136;47.032;15.398;2023-04-02T10:56:51;96898.13;;;24.23;31.33
12146;BME280;6136;47.032;15.398;2023-04-02T10:59:23;96902.50;;;22.00;35.46
12146;BME280;6136;47.032;15.398;2023-04-02T11:01:54;96902.59;;;21.84;35.59
12146;BME280;6136;47.032;15.398;2023-04-02T11:04:26;96902.66;;;21.53;35.85
12146;BME280;6136;47.032;15.398;2023-04-02T11:06:58;96907.09;;;21.15;35.77
12146;BME280;6136;47.032;15.398;2023-04-02T11:09:41;96900.97;;;21.29;37.36
12146;BME280;6136;47.032;15.398;2023-04-02T11:12:20;96892.44;;;23.12;34.32
12146;BME280;6136;47.032;15.398;2023-04-02T11:14:51;96907.22;;;21.76;36.98
12146;BME280;6136;47.032;15.398;2023-04-02T11:17:22;96903.06;;;21.65;36.86
12146;BME280;6136;47.032;15.398;2023-04-02T11:19:51;96909.47;;;21.18;38.79
12146;BME280;6136;47.032;15.398;2023-04-02T11:22:21;96907.88;;;20.93;38.64
12146;BME280;6136;47.032;15.398;2023-04-02T11:24:50;96907.88;;;20.46;39.81
12146;BME280;6136;47.032;15.398;2023-04-02T11:27:26;96905.00;;;20.56;38.45
12146;BME280;6136;47.032;15.398;2023-04-02T11:30:02;96910.47;;;20.15;39.94
12146;BME280;6136;47.032;15.398;2023-04-02T11:32:35;96915.53;;;19.94;40.88
12146;BME280;6136;47.032;15.398;2023-04-02T11:35:34;96907.81;;;19.83;41.06
12146;BME280;6136;47.032;15.398;2023-04-02T11:38:47;96910.81;;;19.71;41.97
12146;BME280;6136;47.032;15.398;2023-04-02T11:44:26;96905.38;;;18.65;43.37
12146;BME280;6136;47.032;15.398;2023-04-02T11:47:16;96904.41;;;18.40;44.90
12146;BME280;6136;47.032;15.398;2023-04-02T11:50:04;96905.38;;;18.39;43.02
12146;BME280;6136;47.032;15.398;2023-04-02T11:52:37;96902.56;;;18.40;40.68
12146;BME280;6136;47.032;15.398;2023-04-02T11:55:21;96904.69;;;19.13;40.30
12146;BME280;6136;47.032;15.398;2023-04-02T11:58:24;96899.03;;;19.40;41.58
12146;BME280;6136;47.032;15.398;2023-04-02T12:04:27;96902.41;;;20.15;39.06
12146;BME280;6136;47.032;15.398;2023-04-02T12:09:55;96897.19;;;18.40;41.44
12146;BME280;6136;47.032;15.398;2023-04-02T12:12:26;96898.97;;;18.32;42.81
12146;BME280;6136;47.032;15.398;2023-04-02T12:14:56;96903.41;;;17.63;44.27
12146;BME280;6136;47.032;15.398;2023-04-02T12:17:30;96900.38;;;17.84;43.23
12146;BME280;6136;47.032;15.398;2023-04-02T12:20:03;96906.03;;;17.81;44.11
12146;BME280;6136;47.032;15.398;2023-04-02T12:22:38;96911.94;;;17.49;44.70
12146;BME280;6136;47.032;15.398;2023-04-02T12:25:22;96908.72;;;17.28;44.41
12146;BME280;6136;47.032;15.398;2023-04-02T12:28:13;96901.69;;;17.09;45.33
12146;BME280;6136;47.032;15.398;2023-04-02T12:30:44;96902.91;;;17.15;45.43
12146;BME280;6136;47.032;15.398;2023-04-02T12:33:27;96907.06;;;17.44;43.90
12146;BME280;6136;47.032;15.398;2023-04-02T12:35:57;96908.00;;;17.71;44.12
12146;BME280;6136;47.032;15.398;2023-04-02T12:38:28;96903.75;;;18.12;41.66
12146;BME280;6136;47.032;15.398;2023-04-02T12:40:58;96903.19;;;18.00;40.38
12146;BME280;6136;47.032;15.398;2023-04-02T12:43:29;96897.88;;;18.76;40.02
12146;BME280;6136;47.032;15.398;2023-04-02T12:46:00;96905.09;;;19.34;41.06
12146;BME280;6136;47.032;15.398;2023-04-02T12:48:31;96896.16;;;19.17;37.77
12146;BME280;6136;47.032;15.398;2023-04-02T12:51:01;96898.78;;;18.93;39.04
12146;BME280;6136;47.032;15.398;2023-04-02T12:53:33;96904.47;;;18.82;38.60
12146;BME280;6136;47.032;15.398;2023-04-02T12:56:04;96901.19;;;18.62;39.99
12146;BME280;6136;47.032;15.398;2023-04-02T12:58:35;96893.34;;;18.77;39.45
12146;BME280;6136;47.032;15.398;2023-04-02T13:01:15;96899.13;;;18.98;38.66
12146;BME280;6136;47.032;15.398;2023-04-02T13:04:00;96895.13;;;19.02;38.36
12146;BME280;6136;47.032;15.398;2023-04-02T13:06:29;96909.59;;;18.67;39.38
12146;BME280;6136;47.032;15.398;2023-04-02T13:08:59;96903.13;;;18.52;39.14
12146;BME280;6136;47.032;15.398;2023-04-02T13:11:38;96913.28;;;18.06;40.76
12146;BME280;6136;47.032;15.398;2023-04-02T13:14:15;96912.56;;;18.04;41.41
12146;BME280;6136;47.032;15.398;2023-04-02T13:16:46;96916.41;;;17.76;41.09
12146;BME280;6136;47.032;15.398;2023-04-02T13:19:28;96910.78;;;17.87;41.78
12146;BME280;6136;47.032;15.398;2023-04-02T13:21:58;96913.31;;;18.14;40.83
12146;BME280;6136;47.032;15.398;2023-04-02T13:24:28;96930.22;;;17.89;41.64
12146;BME280;6136;47.032;15.398;2023-04-02T13:26:59;96937.66;;;17.60;42.71
12146;BME280;6136;47.032;15.398;2023-04-02T13:29:31;96947.09;;;17.64;42.78
12146;BME280;6136;47.032;15.398;2023-04-02T13:32:02;96957.81;;;17.64;44.41
12146;BME280;6136;47.032;15.398;2023-04-02T13:34:32;96958.16;;;17.51;47.45
12146;BME280;6136;47.032;15.398;2023-04-02T13:37:01;96959.94;;;16.97;48.57
12146;BME280;6136;47.032;15.398;2023-04-02T13:39:29;96965.56;;;17.04;48.91
12146;BME280;6136;47.032;15.398;2023-04-02T13:41:59;96947.28;;;16.72;50.15
12146;BME280;6136;47.032;15.398;2023-04-02T13:44:30;96957.25;;;16.80;48.69
12146;BME280;6136;47.032;15.398;2023-04-02T13:46:59;96952.78;;;16.71;47.89
12146;BME280;6136;47.032;15.398;2023-04-02T13:49:31;96950.72;;;16.82;48.50